createdAt,value
2023-03-13T00:00:30.292Z,6.985170620819399
2023-03-13T00:06:48.896Z,7.031333612040134
2023-03-13T00:29:54.645Z,7.11195260242475
2023-03-13T00:37:13.718Z,7.147887489548494
2023-03-13T00:47:20.562Z,7.145463393603679
2023-03-13T00:53:39.102Z,7.145454901755852
2023-03-13T00:59:57.246Z,7.203673704013378
2023-03-13T01:06:15.524Z,7.192632995401336
2023-03-13T01:12:34.048Z,7.238822115384614
2023-03-13T01:18:52.847Z,7.29008870714883
2023-03-13T01:34:22.114Z,7.377966920986624
2023-03-13T01:40:40.729Z,7.343582122700668
2023-03-13T01:46:59.126Z,7.380561507107023
2023-03-13T01:53:18.170Z,7.368333246237458
2023-03-13T01:59:36.709Z,7.365287285744146
2023-03-13T02:05:55.236Z,7.4091679295568555
2023-03-13T02:12:13.551Z,7.4343423390468235
2023-03-13T02:18:31.409Z,7.420500627090302
2023-03-13T02:24:49.368Z,7.415053433319398
2023-03-13T02:31:07.726Z,7.403982023411372
2023-03-13T02:40:23.881Z,7.423854253762542
2023-03-13T02:49:30.184Z,7.396396843645484
2023-03-13T02:55:48.632Z,7.351599080267559
2023-03-13T03:02:08.180Z,7.383406929347826
2023-03-13T03:11:33.119Z,7.334902147784281
2023-03-13T03:17:51.372Z,7.355300219481605
2023-03-13T03:24:10.075Z,7.373997961956523
2023-03-13T03:30:28.454Z,7.3572755539297665
2023-03-13T03:36:46.730Z,7.375988320443145
2023-03-13T03:43:05.131Z,7.3706057953595305
2023-03-13T03:49:23.653Z,7.403422867892976
2023-03-13T04:00:50.762Z,7.392757107023412
2023-03-13T04:07:09.605Z,7.3897601379598665
2023-03-13T04:13:28.344Z,7.4309606239548485
2023-03-13T04:26:30.946Z,7.559849890259196
2023-03-13T04:32:49.442Z,7.568373092600335
2023-03-13T04:39:08.958Z,7.6173442725752505
2023-03-13T04:45:27.550Z,7.617442255434782
2023-03-13T04:51:48.123Z,7.635742840719064
2023-03-13T04:58:08.997Z,7.686832410117056
2023-03-13T05:04:27.737Z,7.735112484322742
2023-03-13T05:10:46.119Z,7.775190739966555
2023-03-13T05:17:04.187Z,7.827362040133779
2023-03-13T05:23:22.678Z,7.928948056020066
2023-03-13T05:29:41.200Z,7.9670379128344475
2023-03-13T05:36:00.045Z,8.02059795673077
2023-03-13T05:42:19.606Z,8.097818248327759
2023-03-13T05:48:41.100Z,8.202278428093646
2023-03-13T06:03:21.499Z,8.423334944607024
2023-03-13T06:09:39.940Z,8.570362797867892
2023-03-13T06:18:43.570Z,8.686141304347826
2023-03-13T06:32:17.619Z,8.85224250104515
2023-03-13T06:38:42.577Z,8.913549723035118
2023-03-13T06:45:02.473Z,9.05385987144649
2023-03-13T07:02:06.650Z,9.34728195547659
2023-03-13T07:08:30.763Z,9.500657791596991
2023-03-13T07:20:40.432Z,9.793814015468227
2023-03-13T07:27:07.649Z,9.953139370819398
2023-03-13T07:36:39.560Z,10.125480116011706
2023-03-13T07:50:09.425Z,10.411157634824415
2023-03-13T07:56:30.263Z,10.527715431647156
2023-03-13T08:02:52.186Z,10.682981030518397
2023-03-13T08:09:13.470Z,10.86478300062709
2023-03-13T08:18:10.015Z,11.134860994983278
2023-03-13T08:30:26.171Z,11.063473949623747
2023-03-13T08:38:53.567Z,11.104686846780936
2023-03-13T08:45:16.093Z,11.239703961120401
2023-03-13T08:51:38.885Z,11.310510294732442
2023-03-13T08:58:00.464Z,11.398743859740803
2023-03-13T09:07:44.473Z,11.503907556438127
2023-03-13T09:22:42.052Z,11.68674095944816
2023-03-13T09:29:03.156Z,11.78401768917224
2023-03-13T09:35:24.392Z,11.652910744147157
2023-03-13T09:41:44.478Z,11.620724028010034
2023-03-13T09:48:05.175Z,11.805259066680602
2023-03-13T10:01:10.212Z,12.641294549540135
2023-03-13T10:07:32.239Z,12.768488059155517
2023-03-13T10:14:08.383Z,12.870671117265887
2023-03-13T10:22:08.825Z,13.425253448996656
2023-03-13T10:28:29.771Z,13.372127795777592
2023-03-13T10:36:21.930Z,13.476300559155518
2023-03-13T10:43:08.298Z,13.374591738085282
2023-03-13T10:49:29.501Z,13.094931673285954
2023-03-13T10:55:50.732Z,13.005462217809367
2023-03-13T11:02:12.861Z,13.426114391722408
2023-03-13T11:08:34.601Z,13.82878867056856
2023-03-13T11:14:55.772Z,13.977882655727429
2023-03-13T11:21:18.556Z,13.994149770066889
2023-03-13T11:27:40.318Z,14.315153375836122
2023-03-13T11:34:01.876Z,14.500530413879597
2023-03-13T11:40:24.561Z,14.67342639527592
2023-03-13T11:49:39.727Z,14.753396085911367
2023-03-13T11:56:03.357Z,14.595280492265886
2023-03-13T12:02:25.895Z,14.664836564590301
2023-03-13T12:08:47.765Z,14.935537076714047
2023-03-13T12:15:58.486Z,15.082598244147157
2023-03-13T12:22:20.631Z,15.148193849289296
2023-03-13T12:28:42.839Z,15.078017872073582
2023-03-13T12:35:04.779Z,15.413289741847827
2023-03-13T12:41:26.984Z,15.641731553093646
2023-03-13T12:47:49.024Z,15.604119199414715
2023-03-13T12:54:11.359Z,15.69561298076923
2023-03-13T13:00:33.157Z,15.809806124581941
2023-03-13T13:14:37.768Z,16.048987510451507
2023-03-13T13:21:01.391Z,15.938129049958192
2023-03-13T13:27:23.581Z,15.904399430392978
2023-03-13T13:33:44.853Z,15.671335441053511
2023-03-13T13:44:23.255Z,15.916259928929769
2023-03-13T13:50:44.954Z,16.39779995819398
2023-03-13T13:57:08.403Z,16.486865071070234
2023-03-13T14:03:30.137Z,16.40889227111204
2023-03-13T14:09:53.553Z,16.2479214569398
2023-03-13T14:16:15.470Z,16.416766826923077
2023-03-13T14:26:55.011Z,15.96370845526756
2023-03-13T14:33:17.464Z,16.20268081103679
2023-03-13T14:39:41.072Z,16.333708063336122
2023-03-13T14:47:00.039Z,16.25628462061037
2023-03-13T14:53:23.393Z,16.447121263586954
2023-03-13T14:59:46.795Z,16.180578490802674
2023-03-13T15:06:08.939Z,16.16437343227425
2023-03-13T15:12:32.606Z,16.146606526964884
2023-03-13T15:24:33.595Z,15.936486204013377
2023-03-13T15:30:55.430Z,16.059673521112042
2023-03-13T15:37:17.404Z,15.989458350752509
2023-03-13T15:45:19.722Z,15.96075721153846
2023-03-13T15:52:39.061Z,15.871464778428093
2023-03-13T15:59:00.433Z,15.891273646530099
2023-03-13T16:05:22.002Z,15.76876306438127
2023-03-13T16:11:44.364Z,15.622822820861202
2023-03-13T16:18:06.972Z,15.574286031563544
2023-03-13T16:24:32.373Z,15.551159463837795
2023-03-13T16:30:55.417Z,15.384379572533447
2023-03-13T16:37:58.949Z,15.228714856814381
2023-03-13T16:44:20.214Z,15.043633073787626
2023-03-13T16:54:34.994Z,14.870547005643811
2023-03-13T17:05:37.214Z,14.65096611099498
2023-03-13T17:11:58.464Z,14.535092234531774
2023-03-13T17:18:20.640Z,14.341850438963212
2023-03-13T17:24:39.768Z,14.264253893185616
2023-03-13T17:30:58.866Z,14.10046966450669
2023-03-13T17:37:19.065Z,14.020982702759198
2023-03-13T17:43:37.611Z,13.879045385660534
2023-03-13T17:49:56.118Z,13.75137110681438
2023-03-13T18:09:11.843Z,13.362665264423077
2023-03-13T18:15:53.644Z,13.23435997596154
2023-03-13T18:22:12.678Z,13.114660195443145
2023-03-13T18:28:32.182Z,13.151412912834449
2023-03-13T18:34:50.745Z,13.033976536371236
2023-03-13T18:41:11.048Z,12.972871159071907
2023-03-13T18:47:29.669Z,13.053214491011706
2023-03-13T18:53:48.579Z,12.962865149456523
2023-03-13T19:00:08.860Z,12.913456965928093
2023-03-13T19:06:28.019Z,12.809647392349497
2023-03-13T19:14:27.391Z,12.71192516722408
2023-03-13T19:20:46.449Z,12.652544288252509
2023-03-13T19:34:15.832Z,12.408841320025083
2023-03-13T19:40:34.883Z,12.286087740384616
2023-03-13T19:46:55.748Z,12.207245505852844
2023-03-13T19:53:15.934Z,12.109960284280938
2023-03-13T19:59:35.255Z,11.936441131897993
2023-03-13T20:05:54.954Z,11.83446710388796
2023-03-13T20:12:14.398Z,11.743235263377926
2023-03-13T20:18:34.304Z,11.704762620192307
2023-03-13T20:24:56.367Z,11.638162364130435
2023-03-13T20:31:17.064Z,11.551501097408028
2023-03-13T20:37:37.342Z,11.479994512959866
2023-03-13T20:43:58.779Z,11.385772235576923
2023-03-13T20:50:27.209Z,11.32860054347826
2023-03-13T20:56:48.846Z,11.28261522784281
2023-03-13T21:03:14.007Z,11.217320756688965
2023-03-13T21:09:38.175Z,11.107868023620401
2023-03-13T21:21:03.552Z,11.054886078595317
2023-03-13T21:29:14.052Z,11.08784098035117
2023-03-13T21:36:06.346Z,11.127574336329433
2023-03-13T21:42:26.425Z,11.235914637332776
2023-03-13T21:55:04.973Z,10.98211420882107
2023-03-13T22:01:25.686Z,11.003307901337793
2023-03-13T22:07:44.994Z,11.079375261287625
2023-03-13T22:14:04.203Z,11.170916727633779
2023-03-13T22:20:23.152Z,11.213417119565218
2023-03-13T22:35:40.961Z,10.637891931438128
2023-03-13T22:47:07.822Z,10.710797057901338
2023-03-13T22:53:26.565Z,10.588546456939799
2023-03-13T22:59:44.916Z,10.523678537834448
2023-03-13T23:06:17.327Z,10.330541257316053
2023-03-13T23:12:35.532Z,10.402830398202342
2023-03-13T23:18:54.131Z,10.348398960075249
2023-03-13T23:29:38.267Z,10.17118585388796
2023-03-13T23:35:57.129Z,10.023442725752508
2023-03-13T23:42:15.876Z,10.126845343854516
2023-03-13T23:51:44.256Z,10.219469847408028
2023-03-13T23:58:02.896Z,10.25909476902174
